KMFR/MFR METAR and TAF weather

Enter ICAO airport designator
Station Type Date Time Source
KMFR METAR 2019/06/17 05:53 UTC NOAA

KMFR 170553Z AUTO 30003KT 10SM CLR 23/05 A2998 RMK AO2 SLP139 T02280050 10322 20228 51021


Station Type Date Time Source
KMFR Decoded METAR 2019/06/17 05:53 UTC NOAA

ROGUE VALLEY INTERNATIONAL AIRPORT, OR, United States (KMFR) 42-23N 122-53W 396M
Jun 17, 2019 - 01:53 AM EDT / 2019.06.17 0553 UTC
Wind: from the WNW (300 degrees) at 3 MPH (3 KT):0
Visibility: 10 mile(s):0
Sky conditions: clear
Temperature: 73.0 F (22.8 C)
Dew Point: 41.0 F (5.0 C)
Relative Humidity: 31%
Pressure (altimeter): 29.98 in. Hg (1015 hPa)
Pressure tendency: 0.06 inches (2.1 hPa) higher than three hours ago
ob: KMFR 170553Z AUTO 30003KT 10SM CLR 23/05 A2998 RMK AO2 SLP139 T02280050 10322 20228 51021
cycle: 6

Station Type Date Time Source
KMFR TAF 2019/06/17 06:27 UTC NOAA

TAF KMFR 170524Z 1706/1806 31003KT P6SM SKC
FM172300 33009G16KT P6SM SKC
FM180200 35014KT P6SM SKC
FM180300 35009KT P6SM SKC

Example: see airport list